createdAt,value
2024-04-12T07:41:29.768Z,101229.94
2024-04-12T07:45:42.390Z,101224.75
2024-04-12T07:49:58.186Z,101226.66
2024-04-12T07:54:13.881Z,101225.34
2024-04-12T07:58:35.856Z,101233.56
2024-04-12T08:02:48.048Z,101236.22
2024-04-12T08:07:00.215Z,101238.72
2024-04-12T08:11:37.694Z,101241.16
2024-04-12T08:15:52.398Z,101231.22
2024-04-12T08:20:14.878Z,101229.41
2024-04-12T08:24:28.632Z,101233.66
2024-04-12T08:28:45.350Z,101233.09
2024-04-12T08:32:57.827Z,101230.19
2024-04-12T08:37:17.813Z,101223.91
2024-04-12T08:41:34.237Z,101233.00
2024-04-12T08:45:49.876Z,101236.59
2024-04-12T08:50:08.475Z,101226.63
2024-04-12T08:54:21.754Z,101217.44
2024-04-12T08:58:33.924Z,101224.44
2024-04-12T09:03:00.168Z,101222.72
2024-04-12T09:07:13.802Z,101218.88
2024-04-12T09:11:26.983Z,101212.31
2024-04-12T09:15:44.690Z,101215.41
2024-04-12T09:19:59.287Z,101202.06
2024-04-12T09:24:16.682Z,101200.25
2024-04-12T09:28:34.124Z,101205.72
2024-04-12T09:32:54.708Z,101192.97
2024-04-12T09:37:32.378Z,101189.31
2024-04-12T09:42:04.827Z,101186.38
2024-04-12T09:46:24.461Z,101181.41
2024-04-12T09:50:55.217Z,101181.72
2024-04-12T09:55:26.170Z,101180.53
2024-04-12T10:00:04.118Z,101181.09
2024-04-12T10:04:45.065Z,101174.25
2024-04-12T10:09:16.507Z,101170.34
2024-04-12T10:13:48.311Z,101163.72
2024-04-12T10:18:25.841Z,101168.31
2024-04-12T10:22:56.539Z,101160.84
2024-04-12T10:27:27.148Z,101169.91
2024-04-12T10:31:59.012Z,101151.03
2024-04-12T10:36:31.346Z,101143.28
2024-04-12T10:40:49.316Z,101142.53
2024-04-12T10:45:03.473Z,101149.88
2024-04-12T10:49:15.696Z,101146.06
2024-04-12T10:53:30.803Z,101136.63
2024-04-12T10:57:43.972Z,101127.91
2024-04-12T11:02:02.229Z,101125.00
2024-04-12T11:06:20.560Z,101124.34
2024-04-12T11:10:42.072Z,101108.09
2024-04-12T11:15:14.716Z,101108.25
2024-04-12T11:19:45.573Z,101113.31
2024-04-12T11:24:20.061Z,101107.50
2024-04-12T11:28:50.940Z,101108.88
2024-04-12T11:33:06.679Z,101104.81
2024-04-12T11:37:24.115Z,101103.13
2024-04-12T11:41:37.092Z,101082.28
2024-04-12T11:45:50.593Z,101090.03
2024-04-12T11:50:11.752Z,101079.69
2024-04-12T11:54:33.208Z,101068.75
2024-04-12T11:59:11.319Z,101072.00
2024-04-12T12:03:24.439Z,101065.00
2024-04-12T12:07:37.066Z,101057.91
2024-04-12T12:11:52.983Z,101046.09
2024-04-12T12:16:07.555Z,101051.50
2024-04-12T12:20:19.998Z,101042.97
2024-04-12T12:24:37.224Z,101048.03
2024-04-12T12:28:49.416Z,101034.75
2024-04-12T12:33:08.530Z,101021.56
2024-04-12T12:37:20.914Z,101020.88
2024-04-12T12:41:33.697Z,101014.81
2024-04-12T12:45:47.331Z,101005.81
2024-04-12T12:50:02.704Z,101007.13
2024-04-12T12:54:18.517Z,100987.31
2024-04-12T12:58:30.903Z,100995.59
2024-04-12T13:02:43.420Z,101002.06
2024-04-12T13:06:55.644Z,100990.50
2024-04-12T13:11:10.194Z,100978.41
2024-04-12T13:15:23.857Z,100983.28
2024-04-12T13:19:36.471Z,100987.09
2024-04-12T13:23:48.640Z,100978.97
2024-04-12T13:28:05.453Z,100981.41
2024-04-12T13:32:24.642Z,100972.97
2024-04-12T13:36:36.922Z,100971.72
2024-04-12T13:40:55.922Z,100973.31
2024-04-12T13:45:27.854Z,100969.91
2024-04-12T13:49:58.497Z,100967.81
2024-04-12T13:54:52.938Z,100964.91
2024-04-12T13:59:12.229Z,100966.06
2024-04-12T14:03:25.719Z,100961.13
2024-04-12T14:07:41.955Z,100958.75
2024-04-12T14:11:54.058Z,100967.16
2024-04-12T14:16:06.700Z,100957.69
2024-04-12T14:20:21.937Z,100959.44
2024-04-12T14:24:52.684Z,100954.81
2024-04-12T14:29:04.901Z,100953.41
2024-04-12T14:33:17.753Z,100954.91
2024-04-12T14:37:30.548Z,100959.97
2024-04-12T14:41:43.781Z,100957.53
2024-04-12T14:45:56.148Z,100958.06
2024-04-12T14:50:11.867Z,100954.78
2024-04-12T14:54:24.858Z,100966.41
2024-04-12T14:58:37.603Z,100961.91
2024-04-12T15:02:50.285Z,100969.28
2024-04-12T15:07:20.927Z,100969.47
2024-04-12T15:11:52.358Z,100977.06
2024-04-12T15:16:23.515Z,100989.69
2024-04-12T15:20:54.879Z,100986.56
2024-04-12T15:25:30.924Z,100985.22
2024-04-12T15:30:01.707Z,100989.88
2024-04-12T15:34:34.108Z,100990.56
2024-04-12T15:39:05.466Z,100988.53
2024-04-12T15:43:36.476Z,100990.19
2024-04-12T15:47:49.069Z,100982.63
2024-04-12T15:52:11.608Z,100992.91
2024-04-12T15:56:23.837Z,101000.06
2024-04-12T16:00:54.488Z,101001.97
2024-04-12T16:05:25.137Z,101010.56
2024-04-12T16:10:00.515Z,101005.41
2024-04-12T16:14:12.775Z,101007.06
2024-04-12T16:18:25.597Z,101005.41
2024-04-12T16:22:37.934Z,101010.81
2024-04-12T16:26:50.509Z,101028.25
2024-04-12T16:31:06.457Z,101035.13
2024-04-12T16:35:22.040Z,101033.84
2024-04-12T16:39:34.244Z,101038.19
2024-04-12T16:43:47.438Z,101027.97
2024-04-12T16:48:01.460Z,101038.09
2024-04-12T16:52:15.550Z,101035.84
2024-04-12T16:56:30.258Z,101043.66
2024-04-12T17:00:42.706Z,101032.03
2024-04-12T17:04:55.090Z,101043.19
2024-04-12T17:09:11.090Z,101046.31
2024-04-12T17:13:23.855Z,101043.34
2024-04-12T17:17:37.751Z,101043.69
2024-04-12T17:21:49.964Z,101045.34
2024-04-12T17:26:05.377Z,101052.09
2024-04-12T17:30:20.082Z,101048.81
2024-04-12T17:34:33.494Z,101055.69
2024-04-12T17:38:45.701Z,101054.16
2024-04-12T17:42:57.744Z,101053.41
2024-04-12T17:47:14.692Z,101067.22
2024-04-12T17:51:53.152Z,101063.03
2024-04-12T17:56:05.860Z,101072.28
2024-04-12T18:00:19.222Z,101072.28
2024-04-12T18:04:31.367Z,101072.38
2024-04-12T18:08:43.584Z,101076.38
2024-04-12T18:12:57.193Z,101087.53
2024-04-12T18:17:09.761Z,101083.09
2024-04-12T18:21:22.781Z,101077.91
2024-04-12T18:25:35.572Z,101072.97
2024-04-12T18:29:53.476Z,101075.78
2024-04-12T18:34:08.287Z,101088.38
2024-04-12T18:38:40.531Z,101087.50
2024-04-12T18:43:11.526Z,101084.22
2024-04-12T18:47:24.184Z,101087.25
2024-04-12T18:51:36.288Z,101092.50
2024-04-12T18:55:53.967Z,101090.28
2024-04-12T19:00:08.350Z,101091.69
2024-04-12T19:04:20.578Z,101077.84
2024-04-12T19:08:32.627Z,101092.41
2024-04-12T19:12:45.112Z,101092.91
2024-04-12T19:16:58.237Z,101107.13
2024-04-12T19:21:10.493Z,101097.53
2024-04-12T19:25:22.538Z,101094.91
2024-04-12T19:29:34.748Z,101089.00
2024-04-12T19:33:46.943Z,101094.38
2024-04-12T19:37:58.999Z,101096.16
2024-04-12T19:42:11.273Z,101096.53
2024-04-12T19:46:23.637Z,101096.56
2024-04-12T19:50:40.160Z,101087.47
2024-04-12T19:54:52.948Z,101106.59
2024-04-12T19:59:04.940Z,101103.34
2024-04-12T20:03:17.669Z,101093.34
2024-04-12T20:07:29.802Z,101091.81
2024-04-12T20:11:42.108Z,101098.53
2024-04-12T20:15:58.673Z,101094.09
2024-04-12T20:20:10.968Z,101097.88
2024-04-12T20:24:29.616Z,101102.69
2024-04-12T20:28:48.216Z,101100.50
2024-04-12T20:33:09.790Z,101093.53
2024-04-12T20:37:21.903Z,101098.50
2024-04-12T20:41:35.284Z,101105.16
2024-04-12T20:45:58.133Z,101101.50
2024-04-12T20:50:10.271Z,101107.28
2024-04-12T20:54:22.748Z,101097.44
2024-04-12T20:58:34.807Z,101105.00
2024-04-12T21:02:46.885Z,101102.53
2024-04-12T21:06:59.102Z,101109.91
2024-04-12T21:11:18.611Z,101113.66
2024-04-12T21:15:34.782Z,101117.53
2024-04-12T21:19:47.159Z,101120.56
2024-04-12T21:24:00.583Z,101113.94
2024-04-12T21:28:12.755Z,101107.63
2024-04-12T21:32:25.109Z,101127.25
2024-04-12T21:36:56.600Z,101125.75
2024-04-12T21:41:14.543Z,101130.88
2024-04-12T21:45:26.678Z,101134.03
2024-04-12T21:49:39.187Z,101134.56
2024-04-12T21:53:51.457Z,101131.03
2024-04-12T21:58:05.499Z,101138.13
2024-04-12T22:02:18.073Z,101148.38
2024-04-12T22:06:30.250Z,101150.38
2024-04-12T22:11:07.811Z,101151.63
2024-04-12T22:15:19.962Z,101149.41
2024-04-12T22:19:32.291Z,101144.31
2024-04-12T22:23:46.802Z,101152.78
2024-04-12T22:27:59.040Z,101160.34
2024-04-12T22:32:11.926Z,101168.69
2024-04-12T22:36:24.094Z,101175.69
2024-04-12T22:40:36.147Z,101171.94
2024-04-12T22:44:48.200Z,101177.59
2024-04-12T22:49:00.238Z,101172.22
2024-04-12T22:53:12.468Z,101173.28
2024-04-12T22:57:24.484Z,101164.63
2024-04-12T23:01:36.562Z,101171.78
2024-04-12T23:05:49.723Z,101170.75
2024-04-12T23:10:03.741Z,101163.13
2024-04-12T23:14:19.481Z,101168.44
2024-04-12T23:18:31.636Z,101166.00
2024-04-12T23:22:45.445Z,101162.38
2024-04-12T23:26:57.478Z,101155.47
2024-04-12T23:31:09.496Z,101153.94
2024-04-12T23:35:21.628Z,101162.09
2024-04-12T23:39:33.777Z,101168.59
2024-04-12T23:43:45.991Z,101161.47
2024-04-12T23:47:58.154Z,101160.59
2024-04-12T23:52:10.219Z,101165.91
2024-04-12T23:56:23.493Z,101168.78
